Fort Davis, TX

11:03 PM CDT on July 25, 2016 (GMT -0500)
3 Dog Ranch | | Change Station

Elev 5274 ft 30.61 °N, 103.97 °W | Updated 3 seconds ago

Clear
Clear
81.7 °F
Feels Like 79 °F
N
4.0
Wind Variable Wind from ESE
Gusts 4.0 mph

Today
High -- | Low -- °F
--% Chance of Precip.
Yesterday
High -- | Low -- °F
Precip. -- in
Pressure 29.94 in
Visibility 10.0 miles
Clouds Clear
Heat Index 79 °F
Dew Point 28 °F
Humidity 14%
Rainfall 0.00 in
Snow Depth Not available.
7:09 AM 8:54 PM
Waning Gibbous, 59% visible
METAR KMRF 260356Z AUTO 09007KT 10SM CLR 25/11 A3015 RMK AO2 SLP138 T02500111
Pressure 29.94 in
Visibility 10.0 miles
Clouds Clear
Heat Index 79 °F
Dew Point 28 °F
Humidity 14%
Rainfall 0.00 in
Snow Depth Not available.
7:09 AM 8:54 PM
Waning Gibbous, 59% visible
METAR KMRF 260356Z AUTO 09007KT 10SM CLR 25/11 A3015 RMK AO2 SLP138 T02500111

10-Day Weather Forecast

Almanac

Astronomy

Jul. 25, 2016 Rise Set
Actual Time
Civil Twilight
Nautical Twilight
Astronomical Twilight
Moon
Length of Visible Light
Length of Day
Tomorrow will be .
, % of the Moon is Illuminated

Today's Extremes

State Highs State Lows

Community

WunderPhotos

Upload Photos

1,927,530 photos uploaded!

WunderBlog® & News

Nearby

Air Quality

  Air Quality AQ Index Pollutant
Not available.

Snow Depth

Station Depth Elevation

Earthquake Activity

City Distance Mag. Time & Date
Minimum magnitude displayed is 2.5.

Coastal Water Temperatures

Place Temperature

Stations

Nearby Weather Stations

Station Location Temp. Windchill Dew Point Humidity Wind Precip. Elev Updated Type
                   

Watches & Warnings

There are currently no watches in effect.